ESGR/KVB METAR and TAF weather

Enter ICAO airport designator
Station Type Date Time Source
ESGR METAR 2018/01/16 08:50 UTC NOAA

ESGR 160850Z AUTO 15015KT 360V170 9999 UP OVC017/// 01/M04 Q0981 REUP


Station Type Date Time Source
ESGR Decoded METAR 2018/01/16 08:50 UTC NOAA

Skovde Flygplats, Sweden (ESGR) 58-27N 013-58E 105M
Jan 16, 2018 - 03:50 AM EST / 2018.01.16 0850 UTC
Wind: from the SSE (150 degrees) at 17 MPH (15 KT) (direction variable):0
Visibility: greater than 7 mile(s):0
Sky conditions: overcast
Weather: precipitation
Temperature: 33 F (1 C)
Windchill: 23 F (-5 C):1
Dew Point: 24 F (-4 C)
Relative Humidity: 69%
Pressure (altimeter): 28.97 in. Hg (0981 hPa)
ob: ESGR 160850Z AUTO 15015KT 360V170 9999 UP OVC017/// 01/M04 Q0981 REUP
cycle: 9

Station Type Date Time Source
ESGR TAF 2009/06/28 04:50 UTC NOAA

METAR ESGR 280450Z AUTO VRB02KT 9999NDV NCD 17/12 Q1020


Example: see airport list